Time;durP1;ratioP1;P1;durP2;ratioP2;P2;SDS_P1;SDS_P2;PMS_P1;PMS_P2;Temp;Humidity;BMP_temperature;BMP_pressure;BME280_temperature;BME280_humidity;BME280_pressure;Samples;Min_cycle;Max_cycle;Signal;HPM_P1;HPM_P2
2022/06/03 00:00:19;;;;;;;13.60;7.18;;;20.00;99.90;;;;;;5061356;28;20293;-70
2022/06/03 00:03:20;;;;;;;9.30;6.03;;;19.90;99.90;;;;;;5072418;28;20265;-71
2022/06/03 00:06:28;;;;;;;13.32;6.55;;;19.90;99.90;;;;;;5060575;28;20198;-71
2022/06/03 00:09:12;;;;;;;8.77;5.57;;;19.90;99.90;;;;;;5029912;28;20225;-71
2022/06/03 00:12:01;;;;;;;6.70;5.80;;;19.90;99.90;;;;;;5029237;28;20215;-76
2022/06/03 00:14:47;;;;;;;9.40;5.57;;;20.00;99.90;;;;;;5059443;28;20597;-71
2022/06/03 00:17:40;;;;;;;9.23;6.28;;;20.10;99.90;;;;;;5071732;28;20669;-71
2022/06/03 00:20:22;;;;;;;13.18;6.75;;;20.30;99.90;;;;;;5071302;28;20214;-70
2022/06/03 00:23:03;;;;;;;12.38;7.57;;;20.30;99.90;;;;;;5070718;28;20267;-71
2022/06/03 00:25:52;;;;;;;10.23;5.95;;;20.20;99.90;;;;;;5071086;28;20289;-72
2022/06/03 00:28:37;;;;;;;8.85;5.90;;;20.20;99.90;;;;;;5071113;28;20210;-71
2022/06/03 00:31:18;;;;;;;10.85;5.82;;;20.40;99.90;;;;;;5069684;28;20786;-72
2022/06/03 00:34:23;;;;;;;8.32;5.80;;;20.40;99.90;;;;;;5071392;28;20684;-71
2022/06/03 00:37:04;;;;;;;11.13;5.78;;;20.40;99.90;;;;;;5049798;28;20255;-71
2022/06/03 00:39:58;;;;;;;8.85;6.10;;;20.40;99.90;;;;;;5070531;28;20260;-70
2022/06/03 00:42:40;;;;;;;10.57;5.32;;;20.40;99.90;;;;;;5058443;28;20237;-70
2022/06/03 00:45:33;;;;;;;11.27;6.05;;;20.40;99.90;;;;;;5071025;28;20259;-71
2022/06/03 00:48:24;;;;;;;10.10;5.93;;;20.50;99.90;;;;;;5071052;28;20206;-70
2022/06/03 00:51:18;;;;;;;8.85;5.80;;;20.40;99.90;;;;;;5071289;28;20287;-70
2022/06/03 00:54:22;;;;;;;8.82;5.28;;;20.40;99.90;;;;;;5069547;28;20673;-70
2022/06/03 00:57:01;;;;;;;8.63;6.38;;;20.50;99.90;;;;;;5071121;28;20255;-72
2022/06/03 00:59:49;;;;;;;8.00;4.55;;;20.50;99.90;;;;;;5058233;28;20309;-71
2022/06/03 01:02:29;;;;;;;7.82;5.93;;;20.50;99.90;;;;;;5071151;28;20235;-69
2022/06/03 01:05:16;;;;;;;8.75;5.10;;;20.50;99.90;;;;;;5070647;28;20256;-71
2022/06/03 01:07:55;;;;;;;7.00;5.15;;;20.40;99.90;;;;;;5070538;28;20722;-71
2022/06/03 01:10:55;;;;;;;10.20;5.57;;;20.40;99.90;;;;;;5070580;28;20206;-70
2022/06/03 01:13:40;;;;;;;8.88;5.45;;;20.40;99.90;;;;;;5037809;28;20209;-74
2022/06/03 01:16:33;;;;;;;11.65;6.15;;;20.40;99.90;;;;;;5070601;28;20214;-70
2022/06/03 01:19:13;;;;;;;6.55;5.75;;;20.10;99.90;;;;;;5070446;28;20267;-72
2022/06/03 01:21:57;;;;;;;9.38;6.07;;;20.00;99.90;;;;;;5057942;28;20237;-69
2022/06/03 01:24:59;;;;;;;10.25;6.65;;;20.00;99.90;;;;;;5070195;28;20256;-69
2022/06/03 01:27:52;;;;;;;12.00;6.45;;;20.00;99.90;;;;;;5070066;28;20239;-71
2022/06/03 01:30:22;;;;;;;11.55;8.98;;;19.90;99.90;;;;;;5070235;28;20210;-71
2022/06/03 01:33:20;;;;;;;11.02;7.25;;;19.80;99.90;;;;;;5070343;28;20398;-72
2022/06/03 01:36:20;;;;;;;11.40;7.05;;;19.80;99.90;;;;;;5070279;28;20206;-73
2022/06/03 01:39:05;;;;;;;13.02;8.13;;;19.80;99.90;;;;;;5036428;28;20214;-73
2022/06/03 01:41:52;;;;;;;12.80;7.80;;;19.80;99.90;;;;;;5069821;28;20788;-75
2022/06/03 01:44:50;;;;;;;8.32;7.20;;;19.80;99.90;;;;;;5070117;28;20218;-72
2022/06/03 01:47:51;;;;;;;7.18;6.47;;;19.90;99.90;;;;;;5057663;28;20202;-72
2022/06/03 01:50:37;;;;;;;9.70;7.10;;;19.80;99.90;;;;;;5070277;28;20259;-72
2022/06/03 01:53:30;;;;;;;8.80;7.10;;;19.70;99.90;;;;;;5069700;28;20205;-72
2022/06/03 01:56:25;;;;;;;11.30;8.23;;;19.80;99.90;;;;;;5059279;28;20210;-72
2022/06/03 01:59:27;;;;;;;8.68;6.47;;;19.80;99.90;;;;;;5070115;28;20627;-71
2022/06/03 02:02:36;;;;;;;12.32;6.90;;;19.70;99.90;;;;;;5069715;28;20233;-72
2022/06/03 02:05:27;;;;;;;10.82;6.85;;;19.80;99.90;;;;;;5070122;28;20206;-73
2022/06/03 02:08:30;;;;;;;9.80;6.80;;;19.70;99.90;;;;;;5059943;28;20276;-70
2022/06/03 02:11:27;;;;;;;12.20;6.15;;;19.70;99.90;;;;;;5070089;28;20596;-72
2022/06/03 02:14:29;;;;;;;11.52;7.30;;;19.70;99.90;;;;;;5070100;28;20275;-73
2022/06/03 02:17:15;;;;;;;11.02;6.57;;;19.80;99.90;;;;;;5069864;28;20267;-71
2022/06/03 02:20:07;;;;;;;13.18;6.95;;;19.70;99.90;;;;;;5058350;28;20699;-72
2022/06/03 02:23:11;;;;;;;10.50;7.20;;;19.70;99.90;;;;;;5069583;28;20233;-72
2022/06/03 02:26:06;;;;;;;12.45;6.65;;;19.80;99.90;;;;;;5069389;28;20214;-72
2022/06/03 02:30:24;;;;;;;13.82;6.20;;;19.70;99.90;;;;;;5059157;28;20218;-74
2022/06/03 02:31:53;;;;;;;11.18;5.93;;;19.70;99.90;;;;;;5069298;28;20205;-72
2022/06/03 02:34:53;;;;;;;12.82;6.75;;;19.80;99.90;;;;;;5069278;28;20206;-72
2022/06/03 02:37:58;;;;;;;7.95;5.80;;;19.70;99.90;;;;;;5069324;28;20214;-72
2022/06/03 02:40:54;;;;;;;8.90;6.70;;;19.70;99.90;;;;;;5056616;28;20561;-75
2022/06/03 02:43:55;;;;;;;7.22;5.75;;;19.70;99.90;;;;;;5069399;28;20230;-74
2022/06/03 02:46:52;;;;;;;14.55;5.72;;;19.70;99.90;;;;;;5070277;28;20339;-73
2022/06/03 02:49:57;;;;;;;12.07;6.68;;;19.60;99.90;;;;;;5073388;28;20206;-73
2022/06/03 02:52:58;;;;;;;11.80;6.40;;;19.60;99.90;;;;;;5060988;28;20259;-72
2022/06/03 02:55:54;;;;;;;8.55;5.80;;;19.70;99.90;;;;;;5073015;28;20259;-74
2022/06/03 02:58:56;;;;;;;6.60;5.82;;;19.70;99.90;;;;;;5073059;28;20202;-74
2022/06/03 03:01:54;;;;;;;10.65;6.32;;;19.80;99.90;;;;;;5072623;28;20628;-72
2022/06/03 03:04:39;;;;;;;8.95;6.00;;;19.80;99.90;;;;;;5057718;28;20206;-71
2022/06/03 03:07:24;;;;;;;6.22;5.35;;;19.80;99.90;;;;;;5073101;28;20214;-73
2022/06/03 03:10:18;;;;;;;14.63;6.70;;;19.80;99.90;;;;;;5073021;28;20206;-73
2022/06/03 03:13:30;;;;;;;7.13;5.90;;;19.90;99.90;;;;;;5052457;28;20669;-72
2022/06/03 03:16:30;;;;;;;8.73;6.13;;;20.10;99.90;;;;;;5047459;28;20210;-73
2022/06/03 03:19:37;;;;;;;8.10;6.25;;;20.00;99.90;;;;;;5072773;28;20214;-74
2022/06/03 03:22:41;;;;;;;8.48;6.15;;;20.00;99.90;;;;;;5069095;28;20793;-74
2022/06/03 03:25:33;;;;;;;7.25;6.05;;;19.90;99.90;;;;;;5064017;28;20218;-73
2022/06/03 03:28:25;;;;;;;7.65;6.35;;;19.90;99.90;;;;;;5058350;28;20210;-73
2022/06/03 03:31:12;;;;;;;9.38;6.68;;;19.80;99.90;;;;;;5072689;28;20576;-74
2022/06/03 03:34:09;;;;;;;8.25;6.72;;;19.70;99.90;;;;;;5072352;28;20213;-71
2022/06/03 03:37:19;;;;;;;10.57;6.45;;;19.60;99.90;;;;;;5072150;28;20673;-72
2022/06/03 03:40:34;;;;;;;10.65;6.32;;;19.50;99.90;;;;;;5067618;28;20221;-70
2022/06/03 03:43:36;;;;;;;12.73;7.30;;;19.50;99.90;;;;;;5040477;28;20338;-70
2022/06/03 03:46:39;;;;;;;8.50;6.40;;;19.50;99.90;;;;;;5068866;28;20202;-70
2022/06/03 03:49:46;;;;;;;7.13;6.43;;;19.50;99.90;;;;;;5054161;28;20210;-70
2022/06/03 03:52:40;;;;;;;10.63;5.50;;;19.50;99.90;;;;;;5058776;28;20726;-73
2022/06/03 03:55:43;;;;;;;10.02;6.50;;;19.40;99.90;;;;;;5072192;28;20218;-71
2022/06/03 03:58:42;;;;;;;8.48;5.50;;;19.50;99.90;;;;;;5071868;28;20202;-73
2022/06/03 04:01:45;;;;;;;11.07;6.15;;;19.50;99.90;;;;;;5062008;28;20279;-70
2022/06/03 04:04:49;;;;;;;10.48;6.05;;;19.50;99.90;;;;;;5059256;28;20206;-72
2022/06/03 04:07:33;;;;;;;10.00;6.07;;;19.50;99.90;;;;;;5072144;28;20241;-72
2022/06/03 04:10:33;;;;;;;12.57;7.35;;;19.60;99.90;;;;;;5071956;28;20260;-71
2022/06/03 04:13:45;;;;;;;7.95;5.45;;;19.50;99.90;;;;;;5061157;28;20214;-71
2022/06/03 04:16:44;;;;;;;8.85;6.47;;;19.60;99.90;;;;;;5059628;28;20315;-71
2022/06/03 04:19:44;;;;;;;7.78;6.35;;;19.60;99.90;;;;;;5071489;28;20731;-72
2022/06/03 04:22:43;;;;;;;9.48;6.22;;;19.60;99.90;;;;;;5071632;28;20287;-73
2022/06/03 04:25:50;;;;;;;23.30;8.27;;;19.60;99.90;;;;;;5054688;28;20263;-71
2022/06/03 04:28:45;;;;;;;8.65;5.03;;;19.70;99.90;;;;;;5029239;28;20250;-72
2022/06/03 04:31:54;;;;;;;7.45;5.85;;;19.70;99.90;;;;;;5071687;28;20198;-72
2022/06/03 04:35:09;;;;;;;8.07;5.35;;;19.70;99.90;;;;;;5070989;28;20206;-71
2022/06/03 04:38:08;;;;;;;8.07;5.60;;;19.70;99.90;;;;;;5070758;28;20730;-70
2022/06/03 04:41:13;;;;;;;10.43;6.85;;;19.70;99.90;;;;;;5059359;28;20205;-72
2022/06/03 04:44:32;;;;;;;9.13;6.28;;;19.80;99.90;;;;;;5032370;28;20230;-71
2022/06/03 04:47:34;;;;;;;8.63;5.93;;;19.70;99.90;;;;;;5071130;28;20206;-72
2022/06/03 04:50:34;;;;;;;9.80;6.35;;;19.80;99.90;;;;;;5070852;28;20622;-71
2022/06/03 04:53:36;;;;;;;11.50;6.53;;;19.80;99.90;;;;;;5071163;28;20260;-72
2022/06/03 04:56:45;;;;;;;12.50;7.82;;;19.80;99.90;;;;;;5070685;28;20267;-72
2022/06/03 05:00:01;;;;;;;9.13;5.93;;;19.80;99.90;;;;;;5047379;28;20201;-71
2022/06/03 05:03:25;;;;;;;16.05;6.38;;;19.80;99.90;;;;;;5056796;28;20229;-71
2022/06/03 05:06:45;;;;;;;10.57;5.85;;;19.80;99.90;;;;;;5028854;28;20200;-71
2022/06/03 05:09:47;;;;;;;9.80;6.35;;;19.80;99.90;;;;;;5056850;28;20214;-73
2022/06/03 05:12:47;;;;;;;8.95;6.18;;;19.90;99.90;;;;;;5070981;28;20243;-72
2022/06/03 05:15:46;;;;;;;10.00;5.45;;;19.90;99.90;;;;;;5071016;28;20735;-72
2022/06/03 05:19:04;;;;;;;10.85;6.10;;;20.00;99.90;;;;;;5061273;28;20210;-71
2022/06/03 05:22:05;;;;;;;9.73;5.82;;;20.00;99.90;;;;;;5059897;28;20263;-69
2022/06/03 05:24:56;;;;;;;10.32;5.28;;;20.10;99.90;;;;;;5053398;28;20742;-70
2022/06/03 05:28:17;;;;;;;9.77;6.10;;;20.10;99.90;;;;;;5069979;28;20202;-70
2022/06/03 05:31:17;;;;;;;10.70;5.70;;;20.00;99.90;;;;;;5028681;28;20270;-70
2022/06/03 05:34:28;;;;;;;6.97;6.35;;;19.90;99.90;;;;;;5004834;28;20219;-72
2022/06/03 05:37:21;;;;;;;8.40;6.03;;;19.90;99.90;;;;;;5036621;28;20597;-70
2022/06/03 05:40:20;;;;;;;9.25;5.88;;;19.90;99.90;;;;;;5065881;28;20284;-70
2022/06/03 05:43:17;;;;;;;10.50;5.53;;;19.80;99.90;;;;;;5066894;28;20282;-72
2022/06/03 05:46:03;;;;;;;13.05;7.15;;;19.80;99.90;;;;;;5070506;28;20669;-71
2022/06/03 05:48:55;;;;;;;11.43;7.22;;;19.80;99.90;;;;;;5069713;28;20695;-70
2022/06/03 05:51:56;;;;;;;11.25;7.15;;;19.70;99.90;;;;;;5070112;28;20263;-72
2022/06/03 05:54:38;;;;;;;10.20;6.05;;;19.70;99.90;;;;;;5059923;28;20632;-71
2022/06/03 05:57:29;;;;;;;14.63;7.05;;;19.70;99.90;;;;;;5070064;28;20209;-69
2022/06/03 06:00:15;;;;;;;9.68;6.38;;;19.70;99.90;;;;;;5067514;28;20629;-71
2022/06/03 06:02:46;;;;;;;10.32;6.55;;;19.70;99.90;;;;;;5066046;28;20230;-73
2022/06/03 06:05:26;;;;;;;9.85;6.75;;;19.60;99.90;;;;;;5069851;28;20267;-71
2022/06/03 06:08:03;;;;;;;9.07;7.13;;;19.60;99.90;;;;;;5069582;28;20281;-75
2022/06/03 06:10:41;;;;;;;10.05;6.10;;;19.60;99.90;;;;;;5069333;28;20259;-70
2022/06/03 06:13:28;;;;;;;10.32;6.15;;;19.70;99.90;;;;;;5070151;28;20217;-71
2022/06/03 06:16:07;;;;;;;14.60;7.55;;;19.90;99.90;;;;;;5070029;28;20252;-69
2022/06/03 06:18:43;;;;;;;10.30;6.00;;;20.20;99.90;;;;;;5069493;28;20289;-69
2022/06/03 06:21:30;;;;;;;7.75;6.15;;;20.50;99.90;;;;;;5070931;28;20259;-70
2022/06/03 06:24:09;;;;;;;9.15;6.22;;;20.60;99.90;;;;;;5073647;28;20234;-70
2022/06/03 06:27:11;;;;;;;7.60;5.53;;;20.80;99.90;;;;;;5073389;28;20202;-69
2022/06/03 06:30:06;;;;;;;8.32;5.55;;;20.90;99.90;;;;;;5024227;28;20749;-69
2022/06/03 06:32:48;;;;;;;12.05;5.13;;;21.20;99.90;;;;;;5073296;28;20206;-69
2022/06/03 06:35:44;;;;;;;8.68;6.05;;;21.50;99.90;;;;;;5074005;28;20216;-69
2022/06/03 06:38:15;;;;;;;7.00;5.43;;;21.40;99.90;;;;;;5055894;28;20221;-69
2022/06/03 06:40:55;;;;;;;8.05;5.28;;;21.40;99.90;;;;;;5073322;28;20203;-69
2022/06/03 06:43:38;;;;;;;6.38;5.43;;;21.50;99.90;;;;;;5073022;28;20229;-69
2022/06/03 06:46:15;;;;;;;12.15;4.85;;;21.50;99.90;;;;;;5073499;28;20309;-69
2022/06/03 06:48:56;;;;;;;7.68;5.07;;;21.40;99.90;;;;;;5073006;28;20198;-71
2022/06/03 06:51:56;;;;;;;9.90;5.65;;;21.40;99.90;;;;;;5069927;28;20217;-69
2022/06/03 06:54:32;;;;;;;8.43;5.25;;;21.50;99.90;;;;;;5066481;28;20293;-71
2022/06/03 06:57:04;;;;;;;7.55;5.07;;;21.70;99.90;;;;;;5072901;28;20218;-69
2022/06/03 06:59:37;;;;;;;6.07;4.22;;;22.00;99.90;;;;;;5072744;28;20611;-69
2022/06/03 07:02:10;;;;;;;12.75;6.05;;;22.10;99.90;;;;;;5073211;28;20206;-68
2022/06/03 07:04:42;;;;;;;9.38;4.18;;;22.30;99.90;;;;;;5072731;28;20234;-70
2022/06/03 07:07:16;;;;;;;9.07;4.60;;;21.80;99.90;;;;;;5072623;28;20210;-70
2022/06/03 07:09:51;;;;;;;6.90;4.28;;;21.50;99.90;;;;;;5073061;28;20210;-71
2022/06/03 07:12:21;;;;;;;7.95;3.72;;;21.60;99.90;;;;;;5072895;28;20692;-70
2022/06/03 07:15:00;;;;;;;6.03;4.15;;;21.80;99.90;;;;;;5072883;28;20293;-72
2022/06/03 07:20:45;;;;;;;5.60;3.95;;;22.70;99.90;;;;;;5072294;28;20212;-70
2022/06/03 07:23:21;;;;;;;7.28;3.65;;;22.90;99.90;;;;;;5073048;28;20230;-70
2022/06/03 07:25:56;;;;;;;5.40;4.22;;;22.90;99.90;;;;;;5072466;28;20635;-70
2022/06/03 07:28:35;;;;;;;6.78;4.10;;;22.80;99.90;;;;;;5072192;28;20204;-69
2022/06/03 07:31:12;;;;;;;10.55;4.97;;;22.90;99.90;;;;;;5072606;28;20255;-70
2022/06/03 07:33:53;;;;;;;5.57;3.25;;;23.20;99.90;;;;;;5071852;28;20221;-72
2022/06/03 07:36:32;;;;;;;5.70;4.07;;;23.80;99.90;;;;;;5071880;28;20730;-72
2022/06/03 07:39:12;;;;;;;7.93;4.50;;;23.20;99.90;;;;;;5069332;28;20214;-73
2022/06/03 07:41:44;;;;;;;4.80;4.13;;;23.30;99.90;;;;;;5071910;28;20724;-71
2022/06/03 07:44:17;;;;;;;5.65;3.83;;;23.20;99.90;;;;;;5072184;28;20648;-72
2022/06/03 07:46:52;;;;;;;6.25;3.83;;;23.40;99.90;;;;;;5072346;28;20235;-74
2022/06/03 07:49:22;;;;;;;5.82;3.20;;;23.30;99.90;;;;;;5072129;28;20301;-73
2022/06/03 07:52:04;;;;;;;4.93;3.53;;;23.30;99.90;;;;;;5072320;28;20206;-72
2022/06/03 07:54:34;;;;;;;6.43;3.92;;;23.30;99.90;;;;;;5071907;28;20260;-73
2022/06/03 07:57:03;;;;;;;6.07;4.03;;;23.50;99.90;;;;;;5071580;28;20206;-72
2022/06/03 07:59:33;;;;;;;4.47;3.47;;;23.60;99.90;;;;;;5071727;28;20619;-73
2022/06/03 08:02:02;;;;;;;9.75;3.63;;;23.90;99.90;;;;;;5072138;28;20219;-72
2022/06/03 08:04:33;;;;;;;7.78;3.55;;;24.60;99.90;;;;;;5071327;28;20241;-72
2022/06/03 08:12:36;;;;;;;5.40;4.22;;;25.70;99.90;;;;;;5071276;28;20205;-73
2022/06/03 08:15:14;;;;;;;5.00;3.90;;;25.30;99.90;;;;;;5071866;28;20263;-73
2022/06/03 08:17:42;;;;;;;9.65;3.88;;;25.20;99.90;;;;;;5071373;28;20629;-72
2022/06/03 08:20:11;;;;;;;5.57;4.35;;;24.40;99.90;;;;;;5071355;28;20210;-73
2022/06/03 08:22:38;;;;;;;6.43;4.22;;;24.60;99.90;;;;;;5071159;28;20203;-71
2022/06/03 08:25:08;;;;;;;4.93;3.55;;;24.50;99.90;;;;;;5071621;28;20234;-72
2022/06/03 08:27:37;;;;;;;6.25;3.92;;;24.40;99.90;;;;;;5070948;28;20206;-72
2022/06/03 08:30:08;;;;;;;5.72;3.80;;;24.60;99.90;;;;;;5071508;28;20206;-72
2022/06/03 08:32:40;;;;;;;7.43;4.85;;;24.90;99.90;;;;;;5069156;28;20210;-72
2022/06/03 08:35:12;;;;;;;6.55;3.60;;;24.90;99.90;;;;;;5071280;28;20214;-72
2022/06/03 08:37:46;;;;;;;5.80;4.93;;;24.90;99.90;;;;;;5070974;28;20283;-72
2022/06/03 08:40:24;;;;;;;9.73;5.28;;;24.90;99.90;;;;;;5071315;28;20205;-72
2022/06/03 08:43:02;;;;;;;7.57;4.15;;;25.20;99.90;;;;;;5071244;28;20283;-72
2022/06/03 08:45:41;;;;;;;6.10;4.32;;;25.00;99.90;;;;;;5057009;28;20287;-72
2022/06/03 08:48:12;;;;;;;10.57;4.85;;;25.30;99.90;;;;;;5071047;28;20209;-72
2022/06/03 08:50:52;;;;;;;6.38;5.00;;;26.50;99.90;;;;;;5070779;28;20265;-72
2022/06/03 08:53:24;;;;;;;4.40;4.00;;;26.90;99.90;;;;;;5070495;28;20267;-74
2022/06/03 08:55:54;;;;;;;5.18;4.35;;;27.70;99.90;;;;;;5071259;28;20225;-72
2022/06/03 08:58:35;;;;;;;11.57;5.80;;;26.80;99.90;;;;;;5070546;28;20263;-72
2022/06/03 09:01:16;;;;;;;10.65;5.90;;;27.70;99.90;;;;;;5070943;28;20256;-74
2022/06/03 09:03:50;;;;;;;5.90;4.43;;;27.20;99.90;;;;;;5070332;28;20285;-74
2022/06/03 09:06:31;;;;;;;6.00;4.50;;;27.70;99.90;;;;;;5071228;28;20206;-74
2022/06/03 09:09:02;;;;;;;7.57;4.43;;;27.00;99.90;;;;;;5070634;28;20622;-72
2022/06/03 09:11:36;;;;;;;7.57;4.90;;;28.00;99.90;;;;;;5070259;28;20210;-74
2022/06/03 09:14:06;;;;;;;10.88;4.32;;;27.50;99.90;;;;;;5070649;28;20209;-73
2022/06/03 09:16:35;;;;;;;9.23;4.05;;;27.60;99.90;;;;;;5070016;28;20202;-73
2022/06/03 09:19:09;;;;;;;7.28;4.40;;;28.10;99.90;;;;;;5070625;28;20620;-73
2022/06/03 09:21:43;;;;;;;8.50;4.68;;;27.80;99.90;;;;;;5070486;28;20271;-73
2022/06/03 09:24:17;;;;;;;6.75;4.68;;;28.10;99.90;;;;;;5070484;28;20239;-73
2022/06/03 09:26:48;;;;;;;6.20;4.55;;;28.90;99.90;;;;;;5070666;28;20676;-72
2022/06/03 09:29:17;;;;;;;8.13;5.10;;;31.30;99.90;;;;;;5070891;28;20206;-73
2022/06/03 09:31:49;;;;;;;10.48;5.72;;;30.70;99.90;;;;;;5070728;28;20638;-73
2022/06/03 09:34:18;;;;;;;5.47;4.75;;;31.90;99.90;;;;;;5070801;28;20210;-72
2022/06/03 09:36:47;;;;;;;4.78;3.95;;;30.70;99.90;;;;;;5070929;28;20662;-72
2022/06/03 09:39:17;;;;;;;6.97;5.15;;;31.30;99.90;;;;;;5070299;28;20639;-73
2022/06/03 09:41:49;;;;;;;8.00;4.38;;;30.10;99.90;;;;;;5070507;28;20202;-74
2022/06/03 09:44:20;;;;;;;11.63;5.63;;;29.30;99.90;;;;;;5070602;28;20225;-72
2022/06/03 09:46:57;;;;;;;6.85;4.18;;;29.50;99.90;;;;;;5070011;28;20742;-74
2022/06/03 09:49:25;;;;;;;6.22;4.75;;;30.00;99.90;;;;;;5069889;28;20205;-74
2022/06/03 09:51:57;;;;;;;6.22;3.88;;;30.40;99.90;;;;;;5070106;28;20201;-72
2022/06/03 09:54:26;;;;;;;8.10;4.57;;;31.20;99.90;;;;;;5069867;28;20205;-73
2022/06/03 09:56:56;;;;;;;8.13;4.22;;;31.80;99.90;;;;;;5074210;28;20217;-73
2022/06/03 09:59:25;;;;;;;5.10;3.55;;;33.20;99.90;;;;;;5074203;28;20250;-72
2022/06/03 10:01:52;;;;;;;7.93;3.75;;;33.60;99.90;;;;;;5074159;28;20672;-72
2022/06/03 10:04:22;;;;;;;6.82;4.88;;;35.80;99.90;;;;;;5073729;28;20598;-73
2022/06/03 10:06:50;;;;;;;4.85;3.42;;;34.80;99.90;;;;;;5074345;28;20209;-74
2022/06/03 10:17:50;;;;;;;7.53;3.45;;;35.40;99.90;;;;;;5036706;28;20204;-75
2022/06/03 10:20:19;;;;;;;6.57;3.58;;;34.20;99.90;;;;;;5074590;28;20227;-74
2022/06/03 10:22:46;;;;;;;5.22;4.05;;;34.60;99.90;;;;;;5074144;28;20626;-73
2022/06/03 10:25:15;;;;;;;8.80;3.95;;;35.20;99.90;;;;;;5074011;28;20229;-74
2022/06/03 10:27:43;;;;;;;7.53;4.65;;;35.10;99.90;;;;;;5073373;28;20206;-74
2022/06/03 10:30:11;;;;;;;7.32;5.00;;;36.10;99.90;;;;;;5073668;28;20263;-74
2022/06/03 10:32:38;;;;;;;7.60;4.40;;;36.00;99.90;;;;;;5073340;28;20198;-74
2022/06/03 10:35:12;;;;;;;5.10;4.05;;;34.60;99.90;;;;;;5071829;28;20669;-73
2022/06/03 10:37:48;;;;;;;8.93;4.68;;;30.60;99.90;;;;;;5072997;28;20217;-73
2022/06/03 10:40:17;;;;;;;8.57;4.15;;;29.60;99.90;;;;;;5073670;28;20615;-73
2022/06/03 10:42:47;;;;;;;8.48;5.07;;;29.50;99.90;;;;;;5074155;28;20209;-73
2022/06/03 10:45:15;;;;;;;7.10;5.50;;;29.00;99.90;;;;;;5073485;28;20238;-73
2022/06/03 10:47:44;;;;;;;5.72;3.97;;;29.00;99.90;;;;;;5073488;28;20209;-73
2022/06/03 10:50:24;;;;;;;7.18;3.95;;;29.30;99.90;;;;;;5073193;28;20676;-73
2022/06/03 11:01:41;;;;;;;8.48;4.40;;;29.00;99.90;;;;;;5072871;28;20235;-73
2022/06/03 11:04:23;;;;;;;8.90;3.25;;;29.20;99.90;;;;;;5073065;28;20236;-72
2022/06/03 11:06:50;;;;;;;6.82;3.92;;;29.30;99.90;;;;;;5072159;28;20207;-73
2022/06/03 11:09:19;;;;;;;8.75;4.20;;;29.10;99.90;;;;;;5073521;28;20210;-73
2022/06/03 11:11:51;;;;;;;6.13;3.80;;;29.20;99.90;;;;;;5073615;28;20202;-73
2022/06/03 11:14:39;;;;;;;9.75;4.07;;;29.50;99.90;;;;;;5059105;28;20248;-73
2022/06/03 11:17:16;;;;;;;9.15;4.55;;;29.80;99.90;;;;;;5072702;28;20237;-72
2022/06/03 11:19:47;;;;;;;5.65;3.60;;;29.60;99.90;;;;;;5072980;28;20206;-73
2022/06/03 11:22:18;;;;;;;7.55;4.43;;;29.90;99.90;;;;;;5073145;28;20210;-72
2022/06/03 11:24:52;;;;;;;8.70;5.00;;;29.50;99.90;;;;;;5073021;28;20233;-73
2022/06/03 11:27:24;;;;;;;8.70;4.10;;;29.90;99.90;;;;;;5071904;28;20206;-73
2022/06/03 11:29:55;;;;;;;5.70;4.63;;;29.60;99.90;;;;;;5072846;28;20309;-73
2022/06/03 11:32:23;;;;;;;6.63;4.32;;;29.70;99.90;;;;;;5072304;28;20260;-73
2022/06/03 11:35:04;;;;;;;9.77;4.05;;;30.10;99.90;;;;;;5072598;28;20669;-72
2022/06/03 11:37:35;;;;;;;11.88;3.90;;;30.40;99.90;;;;;;5072062;28;20214;-73
2022/06/03 11:40:07;;;;;;;10.57;3.83;;;30.10;99.90;;;;;;5072335;28;20214;-73
2022/06/03 11:42:42;;;;;;;4.88;3.85;;;30.10;99.90;;;;;;5072044;28;20210;-72
2022/06/03 11:45:13;;;;;;;9.15;4.90;;;29.90;99.90;;;;;;5072392;28;20586;-73
2022/06/03 11:47:49;;;;;;;8.35;4.50;;;30.20;99.90;;;;;;5071875;28;20260;-72
2022/06/03 11:50:19;;;;;;;7.15;3.97;;;30.20;99.90;;;;;;5072662;28;20255;-72
2022/06/03 11:52:49;;;;;;;10.63;4.63;;;30.50;99.90;;;;;;5072529;28;20236;-72
2022/06/03 11:55:17;;;;;;;3.92;3.33;;;30.70;99.90;;;;;;5072566;28;20286;-72
2022/06/03 11:57:53;;;;;;;8.45;5.25;;;30.40;99.90;;;;;;5072299;28;20214;-73
2022/06/03 12:00:24;;;;;;;6.68;4.25;;;30.30;99.90;;;;;;5071632;28;20210;-72
2022/06/03 12:03:08;;;;;;;6.53;3.90;;;30.30;99.90;;;;;;5072058;28;20205;-73
2022/06/03 12:05:41;;;;;;;8.85;4.10;;;30.40;99.90;;;;;;5071563;28;20225;-72
2022/06/03 12:08:14;;;;;;;6.90;4.53;;;30.60;99.90;;;;;;5072000;28;20730;-72
2022/06/03 12:10:48;;;;;;;6.45;4.72;;;30.30;99.90;;;;;;5071403;28;20265;-72
2022/06/03 12:13:19;;;;;;;7.50;3.42;;;30.30;99.90;;;;;;5072139;28;20259;-71
2022/06/03 12:15:58;;;;;;;6.60;3.70;;;30.10;99.90;;;;;;5071920;28;20267;-72
2022/06/03 12:18:57;;;;;;;8.00;4.43;;;30.40;99.90;;;;;;5070700;28;20210;-71
2022/06/03 12:22:15;;;;;;;5.60;3.47;;;30.30;99.90;;;;;;5059705;28;20620;-72
2022/06/03 12:24:44;;;;;;;8.90;3.75;;;30.50;99.90;;;;;;5071379;28;20320;-74
2022/06/03 12:27:19;;;;;;;5.75;3.53;;;30.60;99.90;;;;;;5071364;28;20210;-73
2022/06/03 12:30:05;;;;;;;10.95;4.53;;;30.60;99.90;;;;;;5071912;28;20201;-73
2022/06/03 12:32:34;;;;;;;5.97;4.40;;;30.90;99.90;;;;;;5070799;28;20657;-72
2022/06/03 12:35:55;;;;;;;5.22;3.83;;;30.60;99.90;;;;;;5068891;28;20206;-73
2022/06/03 12:38:53;;;;;;;6.20;4.43;;;30.50;99.90;;;;;;5070727;28;20210;-73
2022/06/03 12:41:58;;;;;;;10.90;3.75;;;31.10;99.90;;;;;;5070778;28;20210;-72
2022/06/03 12:44:51;;;;;;;8.32;3.83;;;31.00;99.90;;;;;;5070829;28;20206;-73
2022/06/03 12:47:44;;;;;;;7.95;4.20;;;30.50;99.90;;;;;;5058955;28;20260;-74
2022/06/03 12:50:39;;;;;;;5.38;3.55;;;30.90;99.90;;;;;;5069067;28;20205;-73
2022/06/03 12:53:32;;;;;;;6.35;3.58;;;31.00;99.90;;;;;;5071044;28;20271;-73
2022/06/03 12:56:02;;;;;;;9.65;3.95;;;31.00;99.90;;;;;;5060348;28;20217;-73
2022/06/03 12:58:46;;;;;;;6.95;3.55;;;31.20;99.90;;;;;;5070680;28;20201;-72
2022/06/03 13:01:31;;;;;;;5.93;3.72;;;31.40;99.90;;;;;;5071184;28;20206;-72
2022/06/03 13:04:48;;;;;;;8.73;4.18;;;31.40;99.90;;;;;;5070940;28;20205;-72
2022/06/03 13:07:30;;;;;;;9.43;4.65;;;31.20;99.90;;;;;;5071123;28;20615;-73
2022/06/03 13:10:19;;;;;;;5.90;3.78;;;31.20;99.90;;;;;;5070540;28;20573;-73
2022/06/03 13:12:49;;;;;;;6.88;3.90;;;31.20;99.90;;;;;;5071145;28;20206;-73
2022/06/03 13:15:48;;;;;;;7.68;4.97;;;31.40;99.90;;;;;;5071113;28;20214;-72
2022/06/03 13:18:36;;;;;;;5.80;3.58;;;31.20;99.90;;;;;;5071008;28;20202;-73
2022/06/03 13:21:51;;;;;;;7.13;3.92;;;31.50;99.90;;;;;;5070517;28;20209;-73
2022/06/03 13:24:23;;;;;;;6.05;4.07;;;31.60;99.90;;;;;;5051748;28;20288;-73
2022/06/03 13:27:28;;;;;;;7.65;4.20;;;31.10;99.90;;;;;;5070788;28;20233;-72
2022/06/03 13:30:15;;;;;;;4.93;3.40;;;31.30;99.90;;;;;;5058727;28;20213;-74
2022/06/03 13:32:59;;;;;;;8.50;3.72;;;31.40;99.90;;;;;;5069879;28;20265;-73
2022/06/03 13:35:29;;;;;;;7.07;3.50;;;31.50;99.90;;;;;;5070125;28;20206;-75
2022/06/03 13:38:17;;;;;;;5.10;3.80;;;31.70;99.90;;;;;;5070083;28;20210;-74
2022/06/03 13:43:26;;;;;;;6.00;3.67;;;31.90;99.90;;;;;;5069742;28;20208;-73
2022/06/03 13:46:00;;;;;;;9.82;3.90;;;31.50;99.90;;;;;;5070652;28;20225;-73
2022/06/03 13:48:46;;;;;;;4.93;3.55;;;31.60;99.90;;;;;;5069963;28;20205;-73
2022/06/03 13:51:36;;;;;;;10.38;5.38;;;31.80;99.90;;;;;;5070539;28;20209;-73
2022/06/03 13:54:09;;;;;;;11.68;4.80;;;31.50;99.90;;;;;;5057832;28;20272;-72
2022/06/03 13:56:37;;;;;;;10.00;4.47;;;31.60;99.90;;;;;;5069837;28;20209;-74
2022/06/03 13:59:15;;;;;;;8.73;3.67;;;31.60;99.90;;;;;;5070336;28;20623;-72
2022/06/03 14:01:45;;;;;;;7.00;4.18;;;31.60;99.90;;;;;;5070094;28;20571;-73
2022/06/03 14:04:17;;;;;;;10.25;4.45;;;31.50;99.90;;;;;;5070241;28;20205;-71
2022/06/03 14:07:00;;;;;;;12.38;4.75;;;31.00;99.90;;;;;;5070210;28;20274;-73
2022/06/03 14:09:31;;;;;;;6.22;4.43;;;31.20;99.90;;;;;;5069794;28;20212;-73
2022/06/03 14:12:16;;;;;;;8.50;4.57;;;30.80;99.90;;;;;;5070042;28;20205;-72
2022/06/03 14:14:47;;;;;;;7.00;4.50;;;30.80;99.90;;;;;;5069908;28;20217;-74
2022/06/03 14:17:19;;;;;;;9.90;5.47;;;30.80;99.90;;;;;;5070112;28;20252;-73
2022/06/03 14:19:50;;;;;;;8.45;4.50;;;31.00;99.90;;;;;;5070318;28;20205;-75
2022/06/03 14:22:24;;;;;;;10.43;4.53;;;31.20;99.90;;;;;;5070087;28;20210;-73
2022/06/03 14:25:12;;;;;;;9.13;5.28;;;31.10;99.90;;;;;;5069871;28;20202;-74
2022/06/03 14:27:44;;;;;;;8.00;4.35;;;31.20;99.90;;;;;;5069358;28;20689;-73
2022/06/03 14:30:17;;;;;;;7.65;4.55;;;31.00;99.90;;;;;;5069865;28;20609;-74
2022/06/03 14:32:49;;;;;;;8.60;4.45;;;30.60;99.90;;;;;;5070212;28;20293;-74
2022/06/03 14:35:21;;;;;;;9.48;5.05;;;30.80;99.90;;;;;;5069103;28;20298;-74
2022/06/03 14:37:55;;;;;;;13.75;5.75;;;30.60;99.90;;;;;;5067015;28;20749;-74
2022/06/03 14:40:25;;;;;;;8.10;4.97;;;30.40;99.90;;;;;;5056020;28;20669;-72